WEATHER DATA

TODAY
Time Temp. Dewp. Hum. Bar.
00:18 5.9 2.2 77 1022.7
00:28 5.9 2 76 1022.6
00:38 5.8 2.1 77 1022.7
00:48 5.8 2.1 77 1022.7
00:58 5.8 2.1 77 1022.7
01:08 5.8 2.3 78 1022.7
01:19 5.7 2 77 1022.8
01:28 5.6 2.1 78 1022.7
01:38 5.5 2 78 1022.7
01:49 5.4 1.9 78 1022.7
01:59 5.4 1.9 78 1022.7
02:09 5.3 1.8 78 1022.6
02:18 5.3 2 79 1022.7
02:29 5.3 2 79 1022.7
02:39 5.3 2 79 1022.8
02:49 5.2 1.9 79 1022.7
02:59 5.1 1.8 79 1022.8
03:09 5.1 1.8 79 1022.7
03:19 5.1 1.9 80 1022.7
03:29 5 1.8 80 1022.5
03:40 5.1 1.9 80 1022.5
03:49 5 1.7 79 1022.5
03:59 4.9 1.7 80 1022.4
04:10 4.8 1.6 80 1022.6
04:20 4.8 1.6 80 1022.6
04:30 4.8 1.6 80 1022.6
04:39 4.7 1.5 80 1022.6
04:50 4.7 1.7 81 1022.5
05:00 4.7 1.7 81 1022.7
05:10 4.7 1.7 81 1022.8
05:20 4.7 1.7 81 1022.9
05:30 4.8 1.8 81 1023
05:40 4.8 1.8 81 1023
05:50 4.8 1.8 81 1023
06:01 4.7 1.9 82 1023.1
06:11 4.5 1.9 83 1023.4
06:20 4.4 2.1 85 1023.5
06:31 4.4 2.3 86 1023.6
06:41 4.3 2.5 88 1023.6
06:51 4.3 2.5 88 1023.7
07:01 4.3 2.7 89 1023.8
07:11 4.2 2.7 90 1023.9
07:31 3.9 2.4 90 1024.1
07:41 3.8 2.5 91 1024.2
07:51 3.9 2.7 92 1024.2
08:01 3.7 2.4 91 1024.3
08:11 3.5 2.3 92 1024.5
08:22 3.5 2.3 92 1024.7
08:32 3.6 2.6 93 1024.7
08:41 3.6 2.6 93 1024.7
08:52 3.7 2.7 93 1024.8
09:02 3.8 2.8 93 1025
09:12 3.9 3 94 1025.1
09:22 4.1 3.2 94 1025.2
09:42 4.3 3.4 94 1025.3
10:02 4.6 3.7 94 1025.6
10:13 4.8 3.9 94 1025.6
10:22 5 4.1 94 1025.9
10:32 5.1 4.2 94 1026
10:43 5.3 4.4 94 1026.1
10:53 5.5 4.6 94 1026.1
11:03 5.9 5 94 1026.2
11:13 6.4 5.5 94 1026.3
11:23 6.5 5.3 92 1026.3
11:33 6.6 5.2 91 1026.3
11:43 6.5 5 90 1026.4
11:53 6.4 4.7 89 1026.4
12:03 6.5 4.8 89 1026.4
12:13 6.7 5.2 90 1026.3
12:23 7.5 5.3 86 1026.2
12:34 8 5.5 84 1026.2
12:43 8.4 5.2 80 1026.1
12:53 8.7 4.9 77 1026
13:04 8.7 4.9 77 1026
13:14 9 5.4 78 1026
13:24 9.1 5.1 76 1025.9
13:34 8.9 5.1 77 1025.9
13:44 9.3 5.5 77 1025.9
13:54 9.8 5.4 74 1025.9
14:04 9.8 5.2 73 1025.8
14:15 10 5.4 73 1025.8
14:24 10.2 5.2 71 1025.8
14:34 10.3 5.1 70 1025.9
14:44 10.3 4.7 68 1025.8
14:55 10.5 5.1 69 1025.8
15:05 10.7 4.6 66 1025.8
15:14 11 4.7 65 1025.8
15:25 11.1 4.3 63 1025.8
15:35 11 3.8 61 1025.8
15:45 11.1 4.1 62 1025.8
15:55 11.1 4.3 63 1025.8
16:05 10.8 3.8 62 1025.8
16:15 10.7 4.2 64 1025.8
16:25 10.5 4 64 1025.9
16:36 10.3 4 65 1025.8
16:45 10.2 3.9 65 1025.8
16:55 9.9 3.9 66 1025.9
17:05 9.6 3.6 66 1025.8
17:16 9.3 3.5 67 1025.9
17:26 8.9 3.1 67 1025.9
17:35 8.7 3.1 68 1025.9
17:46 8.4 2.8 68 1026
17:56 8 2.7 69 1026
18:06 7.7 2.6 70 1026.1

DAY STATISTIC

2019-02-19
TEMPERATURE
AVERAGE
6.5
HIGH
11.1
15:25
LOW
3.5
08:11
PRESSURE
AVERAGE
1024.6
HIGH
1026.4
11:43
LOW
1022.4
03:59
DEWPOINT
AVERAGE
3.2
HIGH
5.5
11:13
LOW
1.5
04:39
HUMIDITY
AVERAGE
80
HIGH
94
09:12
LOW
61
15:35
TEMPERATURE (°C)
LOW
3.5
HIGH
11.1
AVERAGE
6.5
PRESSURE (hpa)
LOW
1022.4
HIGH
1026.4
AVERAGE
1024.6
DEVICE